Time;durP1;ratioP1;P1;durP2;ratioP2;P2;SDS_P1;SDS_P2;PMS_P1;PMS_P2;Temp;Humidity;BMP_temperature;BMP_pressure;BME280_temperature;BME280_humidity;BME280_pressure;Samples;Min_cycle;Max_cycle;Signal;HPM_P1;HPM_P2
2021/01/20 00:00:05;;;;;;;14.80;11.43;;;;;21.70;99367.00;;;;2087629;28;20224;-65
2021/01/20 00:01:05;;;;;;;11.30;10.02;;;;;21.70;99374.00;;;;2087703;28;20283;-65
2021/01/20 00:02:06;;;;;;;12.50;9.90;;;;;21.60;99375.00;;;;2087676;28;20209;-65
2021/01/20 00:03:06;;;;;;;11.77;10.00;;;;;21.70;99380.00;;;;2087022;28;20220;-65
2021/01/20 00:04:06;;;;;;;11.47;9.73;;;;;21.70;99370.00;;;;2087031;28;21160;-65
2021/01/20 00:05:08;;;;;;;10.97;9.80;;;;;21.60;99371.00;;;;2087318;28;20232;-65
2021/01/20 00:06:09;;;;;;;11.10;9.02;;;;;21.60;99363.00;;;;2087346;28;20547;-65
2021/01/20 00:07:09;;;;;;;12.57;8.80;;;;;21.60;99351.00;;;;2087641;28;20210;-66
2021/01/20 00:08:09;;;;;;;11.20;9.13;;;;;21.60;99360.00;;;;2087565;28;20214;-66
2021/01/20 00:09:09;;;;;;;10.60;9.20;;;;;21.60;99360.00;;;;2087849;28;20209;-65
2021/01/20 00:10:11;;;;;;;10.57;8.37;;;;;21.60;99356.00;;;;2079010;28;20244;-66
2021/01/20 00:11:12;;;;;;;10.20;8.45;;;;;21.60;99347.00;;;;2071080;28;20222;-65
2021/01/20 00:12:12;;;;;;;11.90;9.10;;;;;21.60;99353.00;;;;2086428;28;20216;-65
2021/01/20 00:13:15;;;;;;;10.20;8.97;;;;;21.60;99352.00;;;;2087351;28;20224;-65
2021/01/20 00:14:15;;;;;;;10.77;8.80;;;;;21.60;99346.00;;;;2087236;28;20209;-64
2021/01/20 00:15:19;;;;;;;9.43;7.77;;;;;21.50;99350.00;;;;2087497;28;20209;-65
2021/01/20 00:16:19;;;;;;;10.50;8.50;;;;;21.50;99332.00;;;;2087475;28;20356;-65
2021/01/20 00:17:20;;;;;;;10.07;7.60;;;;;21.50;99343.00;;;;2087263;28;20271;-64
2021/01/20 00:18:20;;;;;;;11.40;8.53;;;;;21.50;99339.00;;;;2087386;28;20213;-65
2021/01/20 00:19:20;;;;;;;8.57;7.67;;;;;21.50;99351.00;;;;2086751;28;20296;-65
2021/01/20 00:20:21;;;;;;;10.10;7.63;;;;;21.50;99354.00;;;;2086716;28;20374;-66
2021/01/20 00:21:21;;;;;;;9.40;7.37;;;;;21.50;99346.00;;;;2082812;28;20213;-66
2021/01/20 00:22:21;;;;;;;9.57;7.20;;;;;21.50;99345.00;;;;2086481;28;20249;-65
2021/01/20 00:23:22;;;;;;;8.30;7.40;;;;;21.50;99346.00;;;;2086345;28;20225;-65
2021/01/20 00:24:22;;;;;;;7.43;6.00;;;;;21.50;99342.00;;;;2086897;28;20711;-65
2021/01/20 00:25:22;;;;;;;7.40;6.40;;;;;21.50;99341.00;;;;2086938;28;20755;-65
2021/01/20 00:26:23;;;;;;;7.93;6.90;;;;;21.50;99339.00;;;;2086932;28;20216;-65
2021/01/20 00:27:23;;;;;;;7.40;6.17;;;;;21.50;99337.00;;;;2086830;28;20236;-65
2021/01/20 00:28:23;;;;;;;8.40;6.80;;;;;21.50;99338.00;;;;2087115;28;20235;-64
2021/01/20 00:29:24;;;;;;;7.00;6.30;;;;;21.50;99328.00;;;;2087009;28;20220;-65
2021/01/20 00:30:25;;;;;;;6.90;6.20;;;;;21.50;99341.00;;;;2086969;28;20244;-65
2021/01/20 00:31:25;;;;;;;6.50;5.80;;;;;21.50;99341.00;;;;2083835;28;20493;-65
2021/01/20 00:32:25;;;;;;;7.20;6.30;;;;;21.40;99338.00;;;;2086517;28;20251;-65
2021/01/20 00:33:26;;;;;;;7.17;5.83;;;;;21.40;99336.00;;;;2086513;28;20224;-65
2021/01/20 00:34:26;;;;;;;8.07;5.23;;;;;21.50;99342.00;;;;2086831;28;20213;-65
2021/01/20 00:35:27;;;;;;;7.40;5.80;;;;;21.40;99326.00;;;;2086963;28;20472;-65
2021/01/20 00:36:27;;;;;;;5.20;4.70;;;;;21.40;99331.00;;;;2084982;28;20628;-65
2021/01/20 00:37:27;;;;;;;6.93;6.23;;;;;21.40;99329.00;;;;2087596;28;20210;-65
2021/01/20 00:38:28;;;;;;;7.20;6.27;;;;;21.40;99320.00;;;;2087439;28;20244;-65
2021/01/20 00:39:28;;;;;;;6.20;5.30;;;;;21.40;99324.00;;;;2087698;28;20243;-65
2021/01/20 00:40:28;;;;;;;5.83;5.23;;;;;21.40;99317.00;;;;2087511;28;20213;-65
2021/01/20 00:41:29;;;;;;;6.57;5.20;;;;;21.40;99318.00;;;;2082230;28;20224;-65
2021/01/20 00:42:29;;;;;;;5.53;4.90;;;;;21.40;99316.00;;;;2086309;28;20732;-65
2021/01/20 00:43:29;;;;;;;6.87;5.47;;;;;21.40;99313.00;;;;2086981;28;20764;-65
2021/01/20 00:44:30;;;;;;;7.00;6.07;;;;;21.40;99315.00;;;;2086740;28;20263;-65
2021/01/20 00:45:30;;;;;;;7.67;5.90;;;;;21.30;99314.00;;;;2086530;28;20797;-65
2021/01/20 00:46:31;;;;;;;5.80;5.07;;;;;21.40;99319.00;;;;2082437;28;20610;-65
2021/01/20 00:47:31;;;;;;;5.87;4.87;;;;;21.30;99320.00;;;;2087626;28;20599;-65
2021/01/20 00:48:31;;;;;;;6.90;5.13;;;;;21.30;99307.00;;;;2087440;28;20220;-65
2021/01/20 00:49:32;;;;;;;6.30;5.40;;;;;21.30;99311.00;;;;2087265;28;20259;-65
2021/01/20 00:50:32;;;;;;;5.03;4.53;;;;;21.30;99309.00;;;;2087312;28;20217;-65
2021/01/20 00:51:32;;;;;;;6.20;4.33;;;;;21.30;99306.00;;;;2087599;28;20209;-65
2021/01/20 00:52:33;;;;;;;5.43;4.90;;;;;21.30;99311.00;;;;2086842;28;20244;-65
2021/01/20 00:53:33;;;;;;;5.50;4.63;;;;;21.30;99306.00;;;;2087347;28;20574;-65
2021/01/20 00:54:33;;;;;;;5.13;4.53;;;;;21.30;99300.00;;;;2087447;28;20205;-65
2021/01/20 00:55:34;;;;;;;5.50;4.50;;;;;21.30;99306.00;;;;2087254;28;20296;-65
2021/01/20 00:56:34;;;;;;;6.10;4.77;;;;;21.30;99308.00;;;;2087512;28;20208;-65
2021/01/20 00:57:34;;;;;;;5.57;4.07;;;;;21.30;99297.00;;;;2087510;28;20217;-65
2021/01/20 00:58:35;;;;;;;5.77;4.57;;;;;21.30;99306.00;;;;2087238;28;20213;-65
2021/01/20 00:59:35;;;;;;;5.37;4.57;;;;;21.30;99297.00;;;;2087654;28;20696;-65
2021/01/20 01:00:35;;;;;;;5.57;4.43;;;;;21.30;99305.00;;;;2087233;28;20714;-65
2021/01/20 01:01:35;;;;;;;5.93;4.50;;;;;21.30;99296.00;;;;2087581;28;20759;-65
2021/01/20 01:02:36;;;;;;;5.17;4.40;;;;;21.30;99282.00;;;;2086590;28;20710;-65
2021/01/20 01:03:36;;;;;;;4.90;4.40;;;;;21.20;99295.00;;;;2078338;28;20789;-65
2021/01/20 01:04:37;;;;;;;4.63;3.43;;;;;21.20;99298.00;;;;2078485;28;20239;-65
2021/01/20 01:05:37;;;;;;;4.57;3.87;;;;;21.20;99289.00;;;;2087299;28;20592;-65
2021/01/20 01:06:38;;;;;;;5.07;4.10;;;;;21.20;99296.00;;;;2087448;28;20213;-65
2021/01/20 01:07:39;;;;;;;4.43;4.03;;;;;21.20;99289.00;;;;2087583;28;20240;-65
2021/01/20 01:08:39;;;;;;;4.60;4.20;;;;;21.20;99290.00;;;;2087314;28;20227;-65
2021/01/20 01:09:39;;;;;;;5.50;3.50;;;;;21.20;99293.00;;;;2086790;28;20731;-65
2021/01/20 01:10:40;;;;;;;4.20;3.47;;;;;21.20;99291.00;;;;2086589;28;20694;-65
2021/01/20 01:11:40;;;;;;;5.30;4.30;;;;;21.20;99285.00;;;;2087051;28;20640;-65
2021/01/20 01:12:40;;;;;;;4.53;3.50;;;;;21.20;99289.00;;;;2086804;28;20650;-65
2021/01/20 01:13:41;;;;;;;4.80;3.87;;;;;21.20;99294.00;;;;2087345;28;20971;-65
2021/01/20 01:14:41;;;;;;;5.60;3.70;;;;;21.20;99309.00;;;;2070188;28;20919;-65
2021/01/20 01:15:41;;;;;;;4.57;3.60;;;;;21.20;99289.00;;;;2070144;28;20243;-65
2021/01/20 01:16:42;;;;;;;4.10;3.63;;;;;21.20;99309.00;;;;2074573;28;20225;-65
2021/01/20 01:17:42;;;;;;;4.10;3.47;;;;;21.20;99297.00;;;;2088757;28;20221;-64
2021/01/20 01:18:42;;;;;;;4.27;3.73;;;;;21.20;99287.00;;;;2088770;28;20244;-65
2021/01/20 01:19:43;;;;;;;4.37;3.67;;;;;21.10;99299.00;;;;2089133;28;22253;-65
2021/01/20 01:20:43;;;;;;;3.50;3.20;;;;;21.10;99289.00;;;;2088893;28;20228;-65
2021/01/20 01:21:43;;;;;;;4.43;3.17;;;;;21.10;99294.00;;;;2089026;28;20298;-65
2021/01/20 01:22:44;;;;;;;3.87;3.40;;;;;21.10;99288.00;;;;2088333;28;20734;-65
2021/01/20 01:23:44;;;;;;;4.47;3.77;;;;;21.10;99294.00;;;;2088980;28;20236;-65
2021/01/20 01:24:44;;;;;;;3.60;3.23;;;;;21.20;99285.00;;;;2088608;28;20290;-65
2021/01/20 01:25:45;;;;;;;4.63;3.30;;;;;21.10;99287.00;;;;2088894;28;20255;-64
2021/01/20 01:26:45;;;;;;;4.40;3.10;;;;;21.10;99284.00;;;;2088863;28;20213;-65
2021/01/20 01:27:45;;;;;;;4.57;3.10;;;;;21.10;99282.00;;;;2088918;28;20216;-65
2021/01/20 01:28:46;;;;;;;4.50;3.40;;;;;21.10;99270.00;;;;2088775;28;20209;-65
2021/01/20 01:29:46;;;;;;;3.53;3.20;;;;;21.10;99280.00;;;;2088698;28;20225;-65
2021/01/20 01:30:46;;;;;;;3.80;3.00;;;;;21.10;99275.00;;;;2088821;28;20227;-65
2021/01/20 01:31:47;;;;;;;3.33;3.00;;;;;21.10;99280.00;;;;2087433;28;20229;-65
2021/01/20 01:32:47;;;;;;;3.60;2.60;;;;;21.10;99280.00;;;;2088321;28;20244;-65
2021/01/20 01:33:47;;;;;;;3.60;3.30;;;;;21.10;99283.00;;;;2088775;28;20221;-65
2021/01/20 01:34:47;;;;;;;4.90;3.37;;;;;21.10;99280.00;;;;2088696;28;20232;-65
2021/01/20 01:35:48;;;;;;;4.27;2.80;;;;;21.10;99272.00;;;;2088779;28;20243;-65
2021/01/20 01:36:48;;;;;;;3.30;2.90;;;;;21.10;99273.00;;;;2079899;28;20224;-65
2021/01/20 01:37:49;;;;;;;3.07;2.77;;;;;21.10;99274.00;;;;2079833;28;20271;-65
2021/01/20 01:38:49;;;;;;;3.27;2.97;;;;;21.00;99268.00;;;;2088596;28;20579;-65
2021/01/20 01:39:49;;;;;;;3.57;2.60;;;;;21.10;99277.00;;;;2088897;28;21258;-65
2021/01/20 01:40:50;;;;;;;3.53;2.90;;;;;21.00;99276.00;;;;2088679;28;21186;-65
2021/01/20 01:41:50;;;;;;;5.37;2.83;;;;;21.10;99269.00;;;;2088687;28;20747;-65
2021/01/20 01:42:50;;;;;;;3.07;2.73;;;;;21.10;99273.00;;;;2088028;28;21014;-65
2021/01/20 01:43:50;;;;;;;3.53;2.70;;;;;21.00;99279.00;;;;2088870;28;20889;-65
2021/01/20 01:44:51;;;;;;;2.90;2.50;;;;;21.00;99268.00;;;;2088537;28;20590;-65
2021/01/20 01:45:51;;;;;;;3.83;3.33;;;;;21.00;99264.00;;;;2088819;28;20583;-65
2021/01/20 01:46:52;;;;;;;3.63;2.80;;;;;21.00;99256.00;;;;2088731;28;20232;-65
2021/01/20 01:47:52;;;;;;;3.93;3.27;;;;;21.00;99245.00;;;;2088883;28;20216;-65
2021/01/20 01:48:53;;;;;;;3.97;3.13;;;;;21.00;99254.00;;;;2088585;28;20213;-65
2021/01/20 01:49:56;;;;;;;4.53;2.95;;;;;21.00;99245.00;;;;2088597;28;20278;-65
2021/01/20 01:50:56;;;;;;;4.15;2.90;;;;;21.00;99248.00;;;;2088551;28;20683;-65
2021/01/20 01:51:58;;;;;;;3.47;3.17;;;;;21.00;99249.00;;;;2088694;28;20311;-65
2021/01/20 01:52:59;;;;;;;3.10;2.80;;;;;21.00;99245.00;;;;2079023;28;20214;-65
2021/01/20 01:53:59;;;;;;;2.73;2.43;;;;;21.00;99244.00;;;;2071629;28;20206;-65
2021/01/20 01:55:00;;;;;;;4.20;3.23;;;;;21.00;99248.00;;;;2079644;28;20233;-65
2021/01/20 01:56:00;;;;;;;5.23;3.10;;;;;21.00;99248.00;;;;2079915;28;20213;-65
2021/01/20 01:57:01;;;;;;;2.80;2.50;;;;;21.00;99242.00;;;;2071629;28;20227;-65
2021/01/20 01:58:02;;;;;;;3.00;2.42;;;;;21.00;99237.00;;;;2071722;28;20301;-65
2021/01/20 01:59:02;;;;;;;2.73;2.53;;;;;21.00;99239.00;;;;2079624;28;20210;-65
2021/01/20 02:00:05;;;;;;;3.10;2.47;;;;;21.00;99242.00;;;;2079793;28;20205;-65
2021/01/20 02:01:05;;;;;;;3.13;2.72;;;;;21.00;99240.00;;;;2080062;28;20213;-65
2021/01/20 02:02:06;;;;;;;3.30;2.70;;;;;21.00;99243.00;;;;2078968;28;20301;-65
2021/01/20 02:03:06;;;;;;;3.27;2.90;;;;;20.90;99241.00;;;;2071020;28;20218;-65
2021/01/20 02:04:06;;;;;;;2.90;2.33;;;;;20.90;99240.00;;;;2079588;28;20404;-65
2021/01/20 02:05:07;;;;;;;4.33;2.30;;;;;21.00;99240.00;;;;2088363;28;20296;-65
2021/01/20 02:06:08;;;;;;;2.83;2.63;;;;;20.90;99238.00;;;;2088492;28;20220;-65
2021/01/20 02:07:08;;;;;;;3.13;2.60;;;;;21.00;99233.00;;;;2088457;28;20213;-65
2021/01/20 02:08:08;;;;;;;2.83;2.60;;;;;20.90;99231.00;;;;2079579;28;20244;-65
2021/01/20 02:09:09;;;;;;;3.17;2.87;;;;;20.90;99233.00;;;;2079563;28;20213;-65
2021/01/20 02:10:09;;;;;;;3.07;2.73;;;;;20.90;99214.00;;;;2079723;28;20205;-65
2021/01/20 02:11:48;;;;;;;3.40;3.10;;;;;20.90;99239.00;;;;2063424;28;20211;-65
2021/01/20 02:13:40;;;;;;;2.70;2.30;;;;;20.90;99231.00;;;;2075517;28;20224;-64
2021/01/20 02:14:52;;;;;;;2.90;2.58;;;;;20.90;99235.00;;;;2038681;29;20296;-65
2021/01/20 02:16:20;;;;;;;3.22;2.67;;;;;20.90;99234.00;;;;2079569;28;20220;-65
2021/01/20 02:17:52;;;;;;;3.10;2.90;;;;;20.90;99235.00;;;;2071346;28;20252;-65
2021/01/20 02:18:53;;;;;;;2.65;2.40;;;;;20.90;99237.00;;;;2063911;28;20218;-65
2021/01/20 02:20:15;;;;;;;3.00;2.53;;;;;20.90;99226.00;;;;2063673;28;20215;-65
2021/01/20 02:21:33;;;;;;;4.45;2.50;;;;;20.90;99237.00;;;;2069640;28;20261;-65
2021/01/20 02:22:44;;;;;;;3.45;2.88;;;;;20.90;99237.00;;;;2082797;28;20217;-65
2021/01/20 02:23:44;;;;;;;2.80;2.42;;;;;20.90;99236.00;;;;2079641;28;20223;-65
2021/01/20 02:25:26;;;;;;;2.67;2.43;;;;;20.90;99224.00;;;;2080197;28;20214;-65
2021/01/20 02:27:04;;;;;;;2.30;2.10;;;;;20.90;99181.00;;;;2061450;28;20227;-65
2021/01/20 02:28:14;;;;;;;3.10;2.42;;;;;20.80;99229.00;;;;2077731;28;20219;-65
2021/01/20 02:29:37;;;;;;;3.38;2.70;;;;;20.80;99235.00;;;;2072006;28;20744;-65
2021/01/20 02:30:37;;;;;;;2.72;2.50;;;;;20.90;99239.00;;;;2074349;28;20225;-65
2021/01/20 02:31:38;;;;;;;3.60;2.40;;;;;20.90;99222.00;;;;2072842;28;20278;-65
2021/01/20 02:32:38;;;;;;;3.50;2.60;;;;;20.90;99220.00;;;;2070940;28;20577;-65
2021/01/20 02:33:39;;;;;;;3.70;2.33;;;;;20.80;99230.00;;;;2071218;28;20304;-65
2021/01/20 02:34:39;;;;;;;3.40;2.93;;;;;20.90;99234.00;;;;2069771;28;20588;-65
2021/01/20 02:35:39;;;;;;;3.37;2.53;;;;;20.80;99228.00;;;;2071228;28;20209;-65
2021/01/20 02:36:40;;;;;;;2.67;2.47;;;;;20.80;99224.00;;;;2079347;28;20271;-65
2021/01/20 02:37:40;;;;;;;3.20;2.57;;;;;20.80;99237.00;;;;2079513;28;20342;-65
2021/01/20 02:38:41;;;;;;;2.90;2.30;;;;;20.80;99228.00;;;;2071398;28;20761;-65
2021/01/20 02:39:41;;;;;;;2.43;2.23;;;;;20.80;99222.00;;;;2079455;28;20213;-65
2021/01/20 02:40:41;;;;;;;4.23;2.10;;;;;20.80;99228.00;;;;2071177;28;20246;-65
2021/01/20 02:41:42;;;;;;;2.63;2.43;;;;;20.80;99223.00;;;;2070909;28;20210;-65
2021/01/20 02:42:44;;;;;;;2.23;2.00;;;;;20.80;99226.00;;;;2070734;28;20218;-65
2021/01/20 02:43:44;;;;;;;4.57;2.40;;;;;20.80;99224.00;;;;2079304;28;20572;-65
2021/01/20 02:44:44;;;;;;;2.97;2.43;;;;;20.80;99219.00;;;;2079476;28;20220;-65
2021/01/20 02:45:45;;;;;;;3.00;2.70;;;;;20.80;99225.00;;;;2088104;28;20212;-65
2021/01/20 02:46:45;;;;;;;2.67;2.47;;;;;20.80;99217.00;;;;2088236;28;20282;-65
2021/01/20 02:47:46;;;;;;;3.00;2.40;;;;;20.70;99213.00;;;;2087967;28;20217;-65
2021/01/20 02:48:50;;;;;;;3.47;2.35;;;;;20.80;99207.00;;;;2088132;28;20212;-65
2021/01/20 02:49:50;;;;;;;2.90;2.50;;;;;20.80;99216.00;;;;2079325;28;20259;-65
2021/01/20 02:50:50;;;;;;;2.60;2.37;;;;;20.80;99207.00;;;;2071278;28;20218;-65
2021/01/20 02:52:03;;;;;;;2.70;2.23;;;;;20.80;99216.00;;;;2078821;28;20309;-65
2021/01/20 02:53:09;;;;;;;3.28;2.20;;;;;20.80;99217.00;;;;2078742;28;20217;-65
2021/01/20 02:54:10;;;;;;;3.10;2.30;;;;;20.80;99216.00;;;;2070578;28;20861;-65
2021/01/20 02:55:10;;;;;;;3.30;2.90;;;;;20.80;99217.00;;;;2079040;28;20267;-65
2021/01/20 02:56:11;;;;;;;3.73;2.70;;;;;20.70;99211.00;;;;2071239;28;20253;-65
2021/01/20 02:57:11;;;;;;;2.67;2.07;;;;;20.70;99209.00;;;;2071224;28;20260;-65
2021/01/20 02:58:14;;;;;;;2.77;2.47;;;;;20.70;99219.00;;;;2063117;28;20219;-65
2021/01/20 02:59:14;;;;;;;3.30;2.50;;;;;20.70;99206.00;;;;2063403;28;20257;-65
2021/01/20 03:00:15;;;;;;;2.43;2.20;;;;;20.80;99210.00;;;;2070993;28;20236;-65
2021/01/20 03:01:15;;;;;;;3.47;2.47;;;;;20.70;99197.00;;;;2079246;28;20704;-65
2021/01/20 03:02:16;;;;;;;2.77;2.23;;;;;20.70;99209.00;;;;2071090;28;20524;-65
2021/01/20 03:03:17;;;;;;;3.13;2.60;;;;;20.70;99201.00;;;;2070241;28;20300;-65
2021/01/20 03:04:17;;;;;;;3.13;2.30;;;;;20.70;99217.00;;;;2078913;28;20268;-65
2021/01/20 03:05:18;;;;;;;2.60;2.40;;;;;20.70;99208.00;;;;2079174;28;20631;-65
2021/01/20 03:06:18;;;;;;;2.50;2.30;;;;;20.70;99208.00;;;;2070915;28;20240;-65
2021/01/20 03:07:19;;;;;;;3.70;2.10;;;;;20.70;99203.00;;;;2079329;28;20220;-65
2021/01/20 03:08:19;;;;;;;4.70;2.50;;;;;20.70;99208.00;;;;2071225;28;20309;-65
2021/01/20 03:09:20;;;;;;;2.30;2.07;;;;;20.70;99204.00;;;;2070952;28;20472;-65
2021/01/20 03:10:20;;;;;;;2.30;2.10;;;;;20.70;99198.00;;;;2071094;28;20647;-65
2021/01/20 03:11:21;;;;;;;2.50;2.30;;;;;20.70;99193.00;;;;2071056;28;20662;-65
2021/01/20 03:12:27;;;;;;;3.40;3.10;;;;;20.70;99190.00;;;;2087996;28;20214;-65
2021/01/20 03:13:27;;;;;;;2.00;1.80;;;;;20.70;99197.00;;;;2079093;28;20216;-65
2021/01/20 03:14:28;;;;;;;4.53;2.50;;;;;20.70;99201.00;;;;2070825;28;20704;-65
2021/01/20 03:15:33;;;;;;;2.40;2.20;;;;;20.70;99198.00;;;;2079098;28;20987;-65
2021/01/20 03:16:33;;;;;;;2.35;2.15;;;;;20.70;99189.00;;;;2079050;28;20224;-65
2021/01/20 03:17:33;;;;;;;4.00;2.30;;;;;20.60;99211.00;;;;2079207;28;20653;-65
2021/01/20 03:18:34;;;;;;;2.60;2.17;;;;;20.70;99215.00;;;;2079122;28;20626;-66
2021/01/20 03:19:34;;;;;;;2.67;2.43;;;;;20.70;99203.00;;;;2079002;28;20674;-65
2021/01/20 03:20:34;;;;;;;2.27;2.07;;;;;20.60;99214.00;;;;2087831;28;20693;-65
2021/01/20 03:21:35;;;;;;;2.37;2.17;;;;;20.60;99201.00;;;;2088085;28;20865;-65
2021/01/20 03:22:35;;;;;;;2.47;2.20;;;;;20.70;99211.00;;;;2078553;28;20557;-65
2021/01/20 03:23:35;;;;;;;2.63;2.10;;;;;20.70;99206.00;;;;2070630;28;20912;-65
2021/01/20 03:24:36;;;;;;;2.90;2.60;;;;;20.60;99198.00;;;;2079240;28;20714;-65
2021/01/20 03:25:36;;;;;;;2.80;2.40;;;;;20.70;99196.00;;;;2087627;28;20683;-65
2021/01/20 03:26:36;;;;;;;2.70;2.50;;;;;20.60;99195.00;;;;2079293;28;20721;-65
2021/01/20 03:27:37;;;;;;;2.33;2.13;;;;;20.60;99192.00;;;;2079219;28;20211;-65
2021/01/20 03:28:37;;;;;;;3.37;2.10;;;;;20.60;99187.00;;;;2088103;28;20579;-65
2021/01/20 03:29:37;;;;;;;2.83;2.60;;;;;20.70;99184.00;;;;2087882;28;20221;-65
2021/01/20 03:30:38;;;;;;;2.50;2.30;;;;;20.70;99186.00;;;;2087785;28;20217;-65
2021/01/20 03:31:38;;;;;;;3.10;2.30;;;;;20.60;99180.00;;;;2087996;28;20686;-65
2021/01/20 03:32:38;;;;;;;3.07;2.67;;;;;20.60;99194.00;;;;2087528;28;20575;-65
2021/01/20 03:33:39;;;;;;;2.27;2.07;;;;;20.60;99189.00;;;;2087811;28;20255;-65
2021/01/20 03:34:39;;;;;;;2.80;2.40;;;;;20.60;99195.00;;;;2087800;28;20216;-65
2021/01/20 03:35:40;;;;;;;2.60;2.40;;;;;20.60;99191.00;;;;2077873;28;20223;-65
2021/01/20 03:36:40;;;;;;;2.60;2.40;;;;;20.60;99197.00;;;;2079215;28;20267;-67
2021/01/20 03:37:40;;;;;;;3.50;2.20;;;;;20.60;99183.00;;;;2087945;28;20216;-65
2021/01/20 03:38:41;;;;;;;2.57;2.37;;;;;20.60;99185.00;;;;2087995;28;20262;-65
2021/01/20 03:39:41;;;;;;;2.70;2.50;;;;;20.60;99193.00;;;;2078365;28;20267;-65
2021/01/20 03:40:42;;;;;;;2.97;2.67;;;;;20.60;99193.00;;;;2079116;28;20216;-65
2021/01/20 03:41:42;;;;;;;3.23;2.60;;;;;20.60;99182.00;;;;2087888;28;20201;-66
2021/01/20 03:42:42;;;;;;;3.57;2.50;;;;;20.60;99187.00;;;;2087455;28;20273;-65
2021/01/20 03:43:42;;;;;;;2.60;2.30;;;;;20.60;99180.00;;;;2087798;28;20286;-65
2021/01/20 03:44:43;;;;;;;2.77;2.43;;;;;20.60;99193.00;;;;2087994;28;20204;-65
2021/01/20 03:45:43;;;;;;;2.50;2.30;;;;;20.60;99183.00;;;;2087709;28;20213;-65
2021/01/20 03:46:43;;;;;;;2.73;2.50;;;;;20.60;99171.00;;;;2087833;28;20247;-65
2021/01/20 03:47:44;;;;;;;2.50;2.30;;;;;20.60;99179.00;;;;2087572;28;20212;-65
2021/01/20 03:48:44;;;;;;;3.00;2.37;;;;;20.60;99181.00;;;;2087701;28;20212;-65
2021/01/20 03:49:45;;;;;;;2.50;2.30;;;;;20.60;99179.00;;;;2087389;28;20231;-65
2021/01/20 03:50:45;;;;;;;2.70;2.23;;;;;20.60;99178.00;;;;2087756;28;20217;-65
2021/01/20 03:51:45;;;;;;;2.50;2.30;;;;;20.60;99180.00;;;;2078760;28;20209;-65
2021/01/20 03:52:46;;;;;;;2.77;2.17;;;;;20.60;99177.00;;;;2078323;28;20269;-65
2021/01/20 03:53:46;;;;;;;2.37;2.00;;;;;20.50;99172.00;;;;2087561;28;20254;-65
2021/01/20 03:54:46;;;;;;;2.30;2.10;;;;;20.60;99168.00;;;;2087764;28;20213;-65
2021/01/20 03:55:47;;;;;;;2.47;2.10;;;;;20.60;99163.00;;;;2087503;28;20240;-65
2021/01/20 03:56:47;;;;;;;3.57;2.47;;;;;20.60;99172.00;;;;2087837;28;20212;-65
2021/01/20 03:57:48;;;;;;;2.53;2.33;;;;;20.60;99173.00;;;;2087676;28;20703;-65
2021/01/20 03:58:48;;;;;;;1.80;1.70;;;;;20.60;99169.00;;;;2086886;28;21022;-65
2021/01/20 03:59:48;;;;;;;3.73;2.70;;;;;20.50;99167.00;;;;2087561;28;20212;-65
2021/01/20 04:00:49;;;;;;;2.43;2.23;;;;;20.50;99162.00;;;;2087413;28;20283;-65
2021/01/20 04:01:49;;;;;;;3.00;2.70;;;;;20.50;99165.00;;;;2087650;28;20208;-65
2021/01/20 04:02:49;;;;;;;2.50;2.30;;;;;20.50;99164.00;;;;2087224;28;20295;-65
2021/01/20 04:03:50;;;;;;;2.10;1.90;;;;;20.50;99167.00;;;;2087093;28;20309;-65
2021/01/20 04:04:50;;;;;;;2.57;2.37;;;;;20.50;99159.00;;;;2087647;28;20266;-65
2021/01/20 04:05:50;;;;;;;3.10;2.30;;;;;20.50;99164.00;;;;2087796;28;20243;-65
2021/01/20 04:06:51;;;;;;;2.73;2.30;;;;;20.50;99101.00;;;;2087765;28;20727;-65
2021/01/20 04:07:51;;;;;;;2.43;2.10;;;;;20.50;99152.00;;;;2087806;28;20223;-65
2021/01/20 04:08:51;;;;;;;2.60;2.40;;;;;20.50;99160.00;;;;2087699;28;20591;-65
2021/01/20 04:09:52;;;;;;;2.33;2.13;;;;;20.50;99154.00;;;;2087433;28;20652;-65
2021/01/20 04:10:52;;;;;;;3.10;2.57;;;;;20.50;99154.00;;;;2087648;28;20209;-65
2021/01/20 04:11:52;;;;;;;3.00;2.67;;;;;20.50;99163.00;;;;2078850;28;20230;-66
2021/01/20 04:12:53;;;;;;;2.10;1.93;;;;;20.50;99157.00;;;;2078259;28;20217;-65
2021/01/20 04:13:53;;;;;;;2.80;2.27;;;;;20.50;99151.00;;;;2087512;28;20212;-65
2021/01/20 04:14:55;;;;;;;2.93;2.63;;;;;20.50;99146.00;;;;2087530;28;20220;-65
2021/01/20 04:15:55;;;;;;;2.50;2.30;;;;;20.50;99147.00;;;;2087150;28;20296;-65
2021/01/20 04:16:56;;;;;;;2.50;2.30;;;;;20.50;99147.00;;;;2086677;28;20209;-65
2021/01/20 04:17:56;;;;;;;3.20;2.50;;;;;20.50;99146.00;;;;2087044;28;20215;-65
2021/01/20 04:18:56;;;;;;;2.90;2.50;;;;;20.50;99140.00;;;;2087396;28;20216;-65
2021/01/20 04:19:57;;;;;;;2.23;2.03;;;;;20.50;99136.00;;;;2087565;28;20224;-65
2021/01/20 04:20:57;;;;;;;2.37;2.17;;;;;20.50;99132.00;;;;2087586;28;20790;-65
2021/01/20 04:21:57;;;;;;;2.67;1.90;;;;;20.50;99132.00;;;;2087513;28;20564;-65
2021/01/20 04:22:58;;;;;;;2.63;2.23;;;;;20.50;99123.00;;;;2087090;28;20217;-65
2021/01/20 04:23:58;;;;;;;2.30;2.10;;;;;20.50;99132.00;;;;2087414;28;20220;-65
2021/01/20 04:24:58;;;;;;;2.43;2.23;;;;;20.50;99132.00;;;;2087586;28;20204;-65
2021/01/20 04:25:59;;;;;;;2.30;2.10;;;;;20.40;99135.00;;;;2087388;28;20220;-65
2021/01/20 04:26:59;;;;;;;3.77;2.37;;;;;20.50;99137.00;;;;2087466;28;20208;-65
2021/01/20 04:27:59;;;;;;;2.50;2.10;;;;;20.40;99057.00;;;;2087606;28;20243;-65
2021/01/20 04:28:59;;;;;;;2.20;2.00;;;;;20.50;99117.00;;;;2078776;28;21024;-65
2021/01/20 04:30:00;;;;;;;2.30;2.10;;;;;20.50;99126.00;;;;2078550;28;20724;-65
2021/01/20 04:31:00;;;;;;;2.80;2.60;;;;;20.50;99120.00;;;;2078738;28;20213;-65
2021/01/20 04:32:01;;;;;;;3.43;2.30;;;;;20.40;99132.00;;;;2078666;28;20268;-65
2021/01/20 04:33:01;;;;;;;2.60;2.40;;;;;20.50;99119.00;;;;2086899;28;20213;-65
2021/01/20 04:34:01;;;;;;;2.67;2.17;;;;;20.40;99117.00;;;;2087387;28;20676;-65
2021/01/20 04:35:02;;;;;;;2.40;2.20;;;;;20.40;99113.00;;;;2087510;28;20217;-65
2021/01/20 04:36:03;;;;;;;2.57;2.37;;;;;20.40;99114.00;;;;2087361;28;20213;-65
2021/01/20 04:37:03;;;;;;;2.90;2.57;;;;;20.40;99125.00;;;;2087552;28;20451;-65
2021/01/20 04:38:04;;;;;;;2.57;2.10;;;;;20.40;99121.00;;;;2087461;28;20212;-65
2021/01/20 04:39:05;;;;;;;3.10;2.33;;;;;20.50;99116.00;;;;2087518;28;20323;-65
2021/01/20 04:40:05;;;;;;;2.70;2.33;;;;;20.40;99109.00;;;;2087311;28;20219;-65
2021/01/20 04:41:06;;;;;;;2.40;2.20;;;;;20.40;99114.00;;;;2087541;28;20678;-65
2021/01/20 04:42:06;;;;;;;2.83;2.17;;;;;20.40;99109.00;;;;2087474;28;20461;-65
2021/01/20 04:43:07;;;;;;;3.00;2.07;;;;;20.40;99107.00;;;;2087008;28;20709;-65
2021/01/20 04:44:07;;;;;;;2.93;2.17;;;;;20.40;99116.00;;;;2087367;28;20219;-65
2021/01/20 04:45:08;;;;;;;2.30;2.10;;;;;20.40;99105.00;;;;2087391;28;20216;-65
2021/01/20 04:46:08;;;;;;;2.80;2.50;;;;;20.40;99123.00;;;;2087444;28;20245;-65
2021/01/20 04:47:08;;;;;;;2.10;1.90;;;;;20.40;99109.00;;;;2078467;28;20725;-65
2021/01/20 04:48:09;;;;;;;2.47;2.27;;;;;20.40;99111.00;;;;2069994;28;20210;-65
2021/01/20 04:49:14;;;;;;;2.73;2.43;;;;;20.40;99101.00;;;;2078557;28;20898;-65
2021/01/20 04:50:14;;;;;;;2.03;1.83;;;;;20.40;99100.00;;;;2070607;28;20222;-65
2021/01/20 04:51:15;;;;;;;2.60;2.40;;;;;20.40;99095.00;;;;2070906;28;20267;-65
2021/01/20 04:52:16;;;;;;;2.57;2.30;;;;;20.40;99080.00;;;;2070987;28;20229;-65
2021/01/20 04:53:16;;;;;;;2.43;2.17;;;;;20.40;99083.00;;;;2071481;28;20308;-65
2021/01/20 04:54:16;;;;;;;2.73;2.07;;;;;20.40;99086.00;;;;2053631;28;20578;-65
2021/01/20 04:55:17;;;;;;;2.40;2.17;;;;;20.40;99082.00;;;;2056020;28;20246;-65
2021/01/20 04:56:17;;;;;;;2.83;2.10;;;;;20.40;99082.00;;;;2078975;28;20644;-65
2021/01/20 04:57:18;;;;;;;2.00;1.90;;;;;20.40;99083.00;;;;2072570;28;20225;-65
2021/01/20 04:58:18;;;;;;;2.27;2.07;;;;;20.40;99082.00;;;;2072039;28;20214;-65
2021/01/20 04:59:18;;;;;;;2.70;2.43;;;;;20.40;99077.00;;;;2072217;28;20217;-64
2021/01/20 05:00:19;;;;;;;3.23;2.10;;;;;20.40;99078.00;;;;2080078;28;20250;-65
2021/01/20 05:01:19;;;;;;;2.90;2.70;;;;;20.40;99068.00;;;;2089199;28;20216;-65
2021/01/20 05:02:20;;;;;;;2.27;2.07;;;;;20.40;99077.00;;;;2079990;28;20801;-65
2021/01/20 05:03:20;;;;;;;2.50;2.30;;;;;20.40;99071.00;;;;2071565;28;20980;-64
2021/01/20 05:04:20;;;;;;;3.97;2.40;;;;;20.40;99062.00;;;;2079332;28;20728;-65
2021/01/20 05:05:21;;;;;;;2.77;2.57;;;;;20.40;99068.00;;;;2080235;28;20223;-65
2021/01/20 05:06:21;;;;;;;2.77;2.57;;;;;20.40;99073.00;;;;2080212;28;20221;-65
2021/01/20 05:07:21;;;;;;;2.83;2.60;;;;;20.40;99061.00;;;;2080312;28;20225;-65